Terminal Aerodrome Forecast
Issued by NWS Twin Cities, MN

Home | Current Version | Previous Version | Graphics & Text | Print | Product List | Glossary On
Versions: 1 2 3 4 5 6 7 8 9 10 11 12 13 14
000
FTUS43 KMPX 290903 AAA
TAFEAU
TAF AMD
KEAU 290903Z 2909/3006 03007KT P6SM SCT250
     FM291600 05010G16KT P6SM BKN150
     FM292200 06010KT P6SM OVC100=

USA.gov is the U.S. government's official web portal to all federal, state and local government web resources and services.